Time;durP1;ratioP1;P1;durP2;ratioP2;P2;SDS_P1;SDS_P2;PMS_P1;PMS_P2;Temp;Humidity;BMP_temperature;BMP_pressure;BME280_temperature;BME280_humidity;BME280_pressure;Samples;Min_cycle;Max_cycle;Signal;HPM_P1;HPM_P2
2023/07/06 00:00:22;;;;;;;0.37;0.37;;;;;;;16.70;51.55;96994.31;29395;238;63005;-59
2023/07/06 00:00:55;;;;;;;0.40;0.40;;;;;;;16.70;51.97;97000.59;29394;204;64013;-60
2023/07/06 00:01:27;;;;;;;0.40;0.40;;;;;;;16.70;51.59;96997.87;29395;212;63004;-61
2023/07/06 00:02:00;;;;;;;0.40;0.40;;;;;;;16.70;51.79;96991.56;29395;202;63009;-58
2023/07/06 00:02:31;;;;;;;0.40;0.40;;;;;;;16.71;52.00;96998.66;29395;197;63004;-50
2023/07/06 00:03:03;;;;;;;0.40;0.40;;;;;;;16.70;51.94;96992.38;29395;329;63009;-59
2023/07/06 00:03:36;;;;;;;0.40;0.40;;;;;;;16.71;52.05;96996.72;29395;197;63016;-59
2023/07/06 00:04:10;;;;;;;0.40;0.40;;;;;;;16.70;51.67;96997.87;29395;231;63008;-60
2023/07/06 00:04:45;;;;;;;0.40;0.40;;;;;;;16.70;51.69;96995.12;29395;218;63008;-59
2023/07/06 00:05:17;;;;;;;0.40;0.40;;;;;;;16.69;52.11;96996.25;29394;278;64014;-59
2023/07/06 00:05:52;;;;;;;0.40;0.40;;;;;;;16.70;52.08;96992.38;29395;230;63005;-52
2023/07/06 00:06:27;;;;;;;0.40;0.40;;;;;;;16.71;51.62;96994.00;29395;210;63009;-59
2023/07/06 00:06:59;;;;;;;0.40;0.40;;;;;;;16.71;51.90;96994.00;29395;218;63005;-59
2023/07/06 00:07:30;;;;;;;0.40;0.40;;;;;;;16.71;51.83;97002.22;29395;204;63009;-59
2023/07/06 00:08:03;;;;;;;0.40;0.40;;;;;;;16.71;51.76;96995.94;29394;238;64009;-59
2023/07/06 00:08:37;;;;;;;0.40;0.40;;;;;;;16.71;51.69;96990.44;29395;325;63009;-59
2023/07/06 00:09:09;;;;;;;0.40;0.40;;;;;;;16.70;51.99;96997.87;29395;301;63016;-50
2023/07/06 00:09:40;;;;;;;0.40;0.40;;;;;;;16.70;51.67;96997.06;29395;221;63009;-49
2023/07/06 00:10:12;;;;;;;0.40;0.40;;;;;;;16.70;51.89;96997.06;29395;254;63000;-59
2023/07/06 00:10:45;;;;;;;0.40;0.40;;;;;;;16.71;51.84;96993.19;29394;202;64013;-58
2023/07/06 00:11:17;;;;;;;0.40;0.40;;;;;;;16.70;51.92;96992.38;29395;234;63017;-59
2023/07/06 00:11:48;;;;;;;0.40;0.40;;;;;;;16.70;51.60;96992.38;29395;221;63008;-60
2023/07/06 00:12:23;;;;;;;0.40;0.40;;;;;;;16.70;51.64;96999.81;29395;421;63005;-60
2023/07/06 00:12:57;;;;;;;0.40;0.40;;;;;;;16.70;51.56;96997.87;29395;282;63009;-60
2023/07/06 00:13:34;;;;;;;0.50;0.50;;;;;;;16.69;51.45;96995.44;29395;203;63005;-59
2023/07/06 00:14:08;;;;;;;0.40;0.40;;;;;;;16.69;51.82;96987.22;29395;239;63009;-51
2023/07/06 00:14:40;;;;;;;0.40;0.40;;;;;;;16.69;51.78;96989.97;29394;213;64009;-59
2023/07/06 00:15:11;;;;;;;0.40;0.40;;;;;;;16.68;51.76;96978.22;29395;201;63009;-59
2023/07/06 00:15:44;;;;;;;0.40;0.40;;;;;;;16.68;51.03;96989.16;29395;235;63005;-60
2023/07/06 00:16:16;;;;;;;0.47;0.47;;;;;;;16.68;51.35;96985.63;29395;198;63009;-60
2023/07/06 00:16:48;;;;;;;0.40;0.40;;;;;;;16.67;51.54;96984.81;29395;235;63004;-60
2023/07/06 00:17:19;;;;;;;0.40;0.40;;;;;;;16.66;51.22;96985.94;29395;268;63009;-60
2023/07/06 00:17:50;;;;;;;0.40;0.40;;;;;;;16.66;51.21;96985.94;29395;210;63004;-61
2023/07/06 00:18:22;;;;;;;0.40;0.40;;;;;;;16.66;51.17;96985.16;29395;218;63009;-60
2023/07/06 00:18:53;;;;;;;0.40;0.40;;;;;;;16.65;51.43;96984.34;29395;235;63004;-59
2023/07/06 00:19:25;;;;;;;0.50;0.50;;;;;;;16.64;51.38;96982.75;29394;221;64013;-50
2023/07/06 00:19:56;;;;;;;0.40;0.40;;;;;;;16.63;51.37;96981.09;29395;214;63005;-60
2023/07/06 00:20:27;;;;;;;0.50;0.50;;;;;;;16.63;51.27;96992.06;29395;224;63009;-59
2023/07/06 00:21:00;;;;;;;0.40;0.40;;;;;;;16.64;51.13;96987.41;29395;224;63005;-60
2023/07/06 00:21:31;;;;;;;0.40;0.40;;;;;;;16.62;51.24;96982.25;29395;209;63009;-60
2023/07/06 00:22:04;;;;;;;0.40;0.40;;;;;;;16.63;51.28;96986.56;29395;344;63005;-60
2023/07/06 00:22:36;;;;;;;0.40;0.40;;;;;;;16.63;51.35;96988.53;29395;206;63009;-51
2023/07/06 00:23:10;;;;;;;0.40;0.40;;;;;;;16.63;51.22;96992.06;29395;196;63005;-50
2023/07/06 00:23:44;;;;;;;0.50;0.50;;;;;;;16.63;51.30;96992.06;29395;215;63009;-60
2023/07/06 00:24:16;;;;;;;0.45;0.45;;;;;;;16.62;51.43;96989.69;29395;203;63004;-61
2023/07/06 00:24:48;;;;;;;0.40;0.40;;;;;;;16.62;51.61;96995.97;29394;221;64013;-59
2023/07/06 00:25:19;;;;;;;0.40;0.40;;;;;;;16.61;51.56;96988.06;29395;205;63004;-59
2023/07/06 00:25:51;;;;;;;0.40;0.40;;;;;;;16.60;51.48;96992.75;29395;202;63009;-50
2023/07/06 00:26:22;;;;;;;0.40;0.40;;;;;;;16.59;51.64;96991.13;29395;230;63004;-60
2023/07/06 00:26:57;;;;;;;0.40;0.40;;;;;;;16.59;51.38;96996.63;29394;297;64008;-60
2023/07/06 00:27:29;;;;;;;0.40;0.40;;;;;;;16.58;51.85;96995.00;29395;346;63005;-60
2023/07/06 00:28:03;;;;;;;0.40;0.40;;;;;;;16.57;51.81;96995.34;29395;232;63009;-59
2023/07/06 00:28:35;;;;;;;0.40;0.40;;;;;;;16.57;51.92;96998.06;29395;199;63009;-60
2023/07/06 00:29:07;;;;;;;0.50;0.50;;;;;;;16.55;51.90;96998.41;29395;310;63009;-60
2023/07/06 00:29:46;;;;;;;0.40;0.40;;;;;;;16.54;52.13;96994.06;29395;216;63005;-60
2023/07/06 00:30:30;;;;;;;0.50;0.50;;;;;;;16.53;52.17;96997.94;29394;214;64013;-50
2023/07/06 00:31:10;;;;;;;0.50;0.50;;;;;;;16.50;52.16;96995.84;29395;220;63005;-51
2023/07/06 00:31:51;;;;;;;0.50;0.50;;;;;;;16.51;52.08;96999.38;29395;292;63009;-62
2023/07/06 00:32:27;;;;;;;0.50;0.50;;;;;;;16.49;52.33;96999.72;29417;233;63004;-50
2023/07/06 00:32:59;;;;;;;0.43;0.43;;;;;;;16.48;52.24;96997.28;29395;220;63014;-60
2023/07/06 00:33:31;;;;;;;0.40;0.40;;;;;;;16.47;52.16;97001.97;29395;215;63004;-60
2023/07/06 00:34:06;;;;;;;0.40;0.40;;;;;;;16.46;52.38;96997.63;29395;238;63008;-60
2023/07/06 00:34:38;;;;;;;0.40;0.40;;;;;;;16.45;52.36;96998.75;29395;254;63004;-61
2023/07/06 00:35:10;;;;;;;0.40;0.40;;;;;;;16.45;52.48;96995.22;29395;216;63009;-59
2023/07/06 00:35:41;;;;;;;0.40;0.40;;;;;;;16.45;52.74;97000.69;29394;267;64009;-58
2023/07/06 00:36:13;;;;;;;0.40;0.40;;;;;;;16.45;52.43;97000.69;29395;301;63014;-50
2023/07/06 00:36:52;;;;;;;0.40;0.40;;;;;;;16.43;52.42;96993.59;29395;241;63005;-59
2023/07/06 00:37:25;;;;;;;0.40;0.40;;;;;;;16.43;52.56;96999.09;29395;218;63009;-59
2023/07/06 00:37:59;;;;;;;0.50;0.50;;;;;;;16.42;52.22;96997.47;29395;233;63005;-61
2023/07/06 00:38:31;;;;;;;0.40;0.40;;;;;;;16.42;52.47;96993.94;29395;207;63005;-59
2023/07/06 00:39:03;;;;;;;0.40;0.40;;;;;;;16.41;52.76;96995.06;29395;242;63004;-61
2023/07/06 00:39:34;;;;;;;0.40;0.40;;;;;;;16.39;52.97;96998.13;29395;212;63009;-59
2023/07/06 00:40:09;;;;;;;0.40;0.40;;;;;;;16.39;52.68;96992.66;29395;222;63004;-60
2023/07/06 00:40:45;;;;;;;0.40;0.40;;;;;;;16.40;52.63;96998.94;29395;205;64013;-59
2023/07/06 00:41:17;;;;;;;0.40;0.40;;;;;;;16.39;52.53;96989.91;29396;269;63004;-61
2023/07/06 00:41:49;;;;;;;0.50;0.50;;;;;;;16.40;52.71;96996.19;29396;288;63008;-60
2023/07/06 00:42:22;;;;;;;0.40;0.40;;;;;;;16.40;52.63;96997.00;29396;204;63005;-50
2023/07/06 00:42:54;;;;;;;0.40;0.40;;;;;;;16.40;52.76;96996.19;29396;213;63009;-58
2023/07/06 00:43:49;;;;;;;0.40;0.40;;;;;;;16.40;52.65;96996.19;29396;200;63012;-59
2023/07/06 00:44:50;;;;;;;0.40;0.40;;;;;;;16.38;52.92;96995.72;29396;271;63009;-59
2023/07/06 00:45:24;;;;;;;0.40;0.40;;;;;;;16.38;52.65;97002.00;29396;219;63009;-50
2023/07/06 00:46:08;;;;;;;0.40;0.40;;;;;;;16.36;52.83;96998.78;29395;214;64009;-60
2023/07/06 00:46:40;;;;;;;0.43;0.43;;;;;;;16.35;52.80;97002.66;29396;239;63009;-50
2023/07/06 00:47:12;;;;;;;0.40;0.40;;;;;;;16.34;53.08;97000.22;29396;257;63008;-59
2023/07/06 00:47:59;;;;;;;0.40;0.40;;;;;;;16.30;53.51;97000.09;29396;347;63009;-59
2023/07/06 00:48:37;;;;;;;0.50;0.50;;;;;;;16.30;53.15;97000.09;29396;204;63008;-59
2023/07/06 00:49:17;;;;;;;0.40;0.40;;;;;;;16.31;53.37;97000.88;29396;217;63008;-59
2023/07/06 00:49:49;;;;;;;0.50;0.50;;;;;;;16.32;53.14;97007.97;29396;202;63004;-60
2023/07/06 00:50:23;;;;;;;0.40;0.40;;;;;;;16.33;53.54;97006.84;29396;203;63009;-59
2023/07/06 00:51:05;;;;;;;0.40;0.40;;;;;;;16.32;53.14;97003.28;29396;236;63005;-60
2023/07/06 00:51:40;;;;;;;0.40;0.40;;;;;;;16.32;53.20;97000.56;29395;231;64013;-59
2023/07/06 00:52:12;;;;;;;0.40;0.40;;;;;;;16.33;53.00;97001.38;29396;202;63005;-60
2023/07/06 00:52:49;;;;;;;0.40;0.40;;;;;;;16.32;53.11;97003.28;29396;215;63009;-60
2023/07/06 00:53:23;;;;;;;0.45;0.45;;;;;;;16.32;52.94;96997.81;29396;228;63004;-50
2023/07/06 00:54:04;;;;;;;0.40;0.40;;;;;;;16.33;52.66;97004.09;29396;363;63009;-59
2023/07/06 00:54:40;;;;;;;0.40;0.40;;;;;;;16.32;52.96;97002.50;29396;196;63011;-52
2023/07/06 00:55:13;;;;;;;0.40;0.40;;;;;;;16.30;52.58;96999.28;29396;305;63023;-60
2023/07/06 00:55:44;;;;;;;0.40;0.40;;;;;;;16.31;52.66;96995.41;29396;254;63004;-60
2023/07/06 00:56:20;;;;;;;0.40;0.40;;;;;;;16.30;52.74;97002.00;29396;203;63008;-59
2023/07/06 00:56:53;;;;;;;0.40;0.40;;;;;;;16.30;52.54;96999.28;29395;218;64000;-61
2023/07/06 00:57:24;;;;;;;0.40;0.40;;;;;;;16.31;52.76;96995.41;29396;287;63008;-60
2023/07/06 00:58:07;;;;;;;0.40;0.40;;;;;;;16.32;52.84;96997.00;29396;244;63008;-49
2023/07/06 00:58:43;;;;;;;0.47;0.47;;;;;;;16.31;52.58;97000.88;29396;261;63009;-59
2023/07/06 00:59:19;;;;;;;0.40;0.40;;;;;;;16.30;52.31;96996.53;29396;326;63005;-59
2023/07/06 00:59:52;;;;;;;0.40;0.40;;;;;;;16.30;52.71;97002.00;29396;237;63009;-61
2023/07/06 01:00:27;;;;;;;0.50;0.50;;;;;;;16.30;52.55;96996.53;29396;202;63005;-61
2023/07/06 01:01:05;;;;;;;0.40;0.40;;;;;;;16.30;52.66;96996.53;29396;213;63009;-51
2023/07/06 01:01:41;;;;;;;0.50;0.50;;;;;;;16.28;52.94;96996.09;29396;215;63004;-59
2023/07/06 01:02:17;;;;;;;0.47;0.47;;;;;;;16.26;53.04;96998.34;29395;204;64013;-60
2023/07/06 01:02:55;;;;;;;0.40;0.40;;;;;;;16.25;53.09;96997.53;29396;212;63004;-50
2023/07/06 01:03:27;;;;;;;0.40;0.40;;;;;;;16.26;53.91;97009.31;29396;229;63027;-60
2023/07/06 01:04:01;;;;;;;0.40;0.40;;;;;;;16.23;53.56;97009.94;29396;196;63004;-60
2023/07/06 01:04:32;;;;;;;0.50;0.50;;;;;;;16.23;53.28;96999.81;29396;210;63009;-61
2023/07/06 01:05:06;;;;;;;0.50;0.50;;;;;;;16.23;53.25;97004.47;29396;281;63008;-60
2023/07/06 01:05:40;;;;;;;0.40;0.40;;;;;;;16.24;52.94;97000.59;29396;198;63009;-60
2023/07/06 01:06:22;;;;;;;0.40;0.40;;;;;;;16.24;53.43;96995.94;29396;307;63005;-60
2023/07/06 01:06:55;;;;;;;0.50;0.50;;;;;;;16.25;53.21;97002.22;29396;310;63009;-50
2023/07/06 01:07:29;;;;;;;0.40;0.40;;;;;;;16.25;53.10;97002.22;29395;219;64009;-60
2023/07/06 01:08:16;;;;;;;0.40;0.40;;;;;;;16.25;53.09;96996.75;29396;226;63009;-61
2023/07/06 01:08:48;;;;;;;0.40;0.40;;;;;;;16.25;53.13;96999.47;29396;203;63004;-59
2023/07/06 01:09:20;;;;;;;0.40;0.40;;;;;;;16.25;52.99;96996.75;29396;218;63009;-59
2023/07/06 01:09:52;;;;;;;0.40;0.40;;;;;;;16.25;53.12;96999.47;29396;220;63004;-59
2023/07/06 01:10:26;;;;;;;0.50;0.50;;;;;;;16.24;52.95;97001.41;29396;208;63009;-60
2023/07/06 01:10:59;;;;;;;0.50;0.50;;;;;;;16.23;52.74;96999.00;29396;227;63004;-60
2023/07/06 01:11:33;;;;;;;0.50;0.50;;;;;;;16.23;52.86;96994.31;29396;321;63015;-61
2023/07/06 01:12:06;;;;;;;0.40;0.40;;;;;;;16.24;52.65;96992.41;29395;264;64005;-60
2023/07/06 01:12:38;;;;;;;0.40;0.40;;;;;;;16.24;53.19;97000.59;29395;262;64014;-59
2023/07/06 01:13:09;;;;;;;0.40;0.40;;;;;;;16.23;52.56;96996.25;29396;222;63005;-60
2023/07/06 01:13:52;;;;;;;0.40;0.40;;;;;;;16.24;52.63;97000.59;29396;235;63009;-61
2023/07/06 01:14:26;;;;;;;0.40;0.40;;;;;;;16.25;52.09;96996.75;29396;295;63005;-51
2023/07/06 01:14:58;;;;;;;0.40;0.40;;;;;;;16.26;52.26;96990.94;29396;221;63013;-58
2023/07/06 01:15:33;;;;;;;0.40;0.40;;;;;;;16.25;52.02;96991.25;29396;203;63008;-50
2023/07/06 01:16:18;;;;;;;0.50;0.50;;;;;;;16.25;52.08;96994.00;29396;298;63009;-51
2023/07/06 01:17:14;;;;;;;0.50;0.50;;;;;;;16.24;52.54;96989.66;29396;216;63004;-60
2023/07/06 01:17:55;;;;;;;0.50;0.50;;;;;;;16.22;52.75;96997.37;29395;372;64013;-59
2023/07/06 01:19:17;;;;;;;0.40;0.40;;;;;;;16.17;52.92;96995.63;29396;281;63004;-59
2023/07/06 01:20:25;;;;;;;0.47;0.47;;;;;;;16.17;52.99;96992.09;29395;199;64009;-60
2023/07/06 01:21:31;;;;;;;0.50;0.50;;;;;;;16.12;53.79;96992.25;29417;248;64009;-50
2023/07/06 01:22:54;;;;;;;0.50;0.50;;;;;;;16.07;53.29;96991.28;29418;197;63009;-60
2023/07/06 01:23:49;;;;;;;0.45;0.45;;;;;;;16.07;53.35;96985.81;29418;204;63011;-59
2023/07/06 01:25:11;;;;;;;0.50;0.50;;;;;;;16.05;53.49;96987.28;29396;215;63025;-50
2023/07/06 01:26:09;;;;;;;0.50;0.50;;;;;;;16.05;53.85;96985.34;29397;197;63004;-58
2023/07/06 01:27:32;;;;;;;0.50;0.50;;;;;;;16.04;53.47;96985.66;29396;313;64013;-61
2023/07/06 01:28:34;;;;;;;0.40;0.40;;;;;;;16.04;53.51;96985.66;29419;236;63009;-59
2023/07/06 01:29:44;;;;;;;0.50;0.50;;;;;;;16.03;53.82;96984.06;29397;223;63009;-60
2023/07/06 01:30:47;;;;;;;0.50;0.50;;;;;;;16.03;53.60;96984.88;29397;253;63005;-50
2023/07/06 01:31:48;;;;;;;0.50;0.50;;;;;;;16.02;53.41;96980.50;29418;296;64013;-59
2023/07/06 01:32:26;;;;;;;0.50;0.50;;;;;;;16.02;53.05;96979.72;29441;246;63004;-49
2023/07/06 01:33:07;;;;;;;0.50;0.50;;;;;;;16.02;53.08;96982.44;29375;280;64009;-49
2023/07/06 01:34:04;;;;;;;;;;;;;;;16.00;53.23;96980.03;29997;983;6000;-59
2023/07/06 01:35:03;;;;;;;0.40;0.40;;;;;;;16.01;53.16;96976.16;29400;210;64005;-58
2023/07/06 01:35:44;;;;;;;0.50;0.50;;;;;;;16.00;53.21;96979.22;29396;206;63009;-60
2023/07/06 01:36:38;;;;;;;0.50;0.50;;;;;;;15.98;53.38;96976.00;29419;199;63005;-60
2023/07/06 01:37:23;;;;;;;0.50;0.50;;;;;;;15.97;53.56;96975.22;29396;227;64013;-50
2023/07/06 01:37:58;;;;;;;0.50;0.50;;;;;;;15.97;53.43;96975.22;29397;227;63005;-59
2023/07/06 01:38:30;;;;;;;0.40;0.40;;;;;;;15.96;53.74;96968.13;29396;217;63009;-51
2023/07/06 01:39:30;;;;;;;0.50;0.50;;;;;;;15.97;53.53;96974.41;29396;202;63004;-60
2023/07/06 01:40:05;;;;;;;0.50;0.50;;;;;;;15.96;53.59;96970.88;29396;199;63009;-49
2023/07/06 01:40:36;;;;;;;0.50;0.50;;;;;;;15.95;53.65;96969.25;29395;212;64009;-58
2023/07/06 01:41:10;;;;;;;0.40;0.40;;;;;;;15.92;53.61;96972.69;29397;211;63008;-60
2023/07/06 01:41:42;;;;;;;0.40;0.40;;;;;;;15.91;53.76;96971.06;29395;208;64008;-59
2023/07/06 01:42:29;;;;;;;0.40;0.40;;;;;;;15.90;53.69;96966.72;29396;231;63009;-59
2023/07/06 01:43:01;;;;;;;0.40;0.40;;;;;;;15.89;53.63;96967.84;29396;216;63005;-62
2023/07/06 01:43:33;;;;;;;0.40;0.40;;;;;;;15.90;54.17;96974.94;29396;277;63009;-59
2023/07/06 01:44:08;;;;;;;0.50;0.50;;;;;;;15.89;54.03;96970.59;29396;361;63005;-60
2023/07/06 01:44:42;;;;;;;0.50;0.50;;;;;;;15.88;54.13;96965.44;29396;230;63009;-60
2023/07/06 01:45:21;;;;;;;0.50;0.50;;;;;;;15.88;54.15;96968.16;29396;198;63005;-59
2023/07/06 01:45:53;;;;;;;0.50;0.50;;;;;;;15.83;54.50;96966.41;29395;225;64013;-59
2023/07/06 01:46:25;;;;;;;0.50;0.50;;;;;;;15.81;54.38;96968.66;29396;213;63004;-58
2023/07/06 01:46:58;;;;;;;0.45;0.45;;;;;;;15.78;54.00;96966.56;29396;330;63009;-59
2023/07/06 01:47:34;;;;;;;0.45;0.45;;;;;;;15.78;54.61;96972.03;29395;215;64009;-51
2023/07/06 01:48:10;;;;;;;0.40;0.40;;;;;;;15.77;54.57;96969.63;29396;258;63024;-59
2023/07/06 01:48:43;;;;;;;0.40;0.40;;;;;;;15.76;54.65;96968.81;29396;224;63014;-60
2023/07/06 01:49:15;;;;;;;0.50;0.50;;;;;;;15.77;54.69;96964.97;29396;277;63024;-60
2023/07/06 01:49:49;;;;;;;0.50;0.50;;;;;;;15.77;54.65;96981.38;29396;216;63005;-59
2023/07/06 01:50:38;;;;;;;0.50;0.50;;;;;;;15.75;54.49;96968.03;29396;197;63009;-59
2023/07/06 01:51:24;;;;;;;0.40;0.40;;;;;;;15.73;54.41;96975.75;29396;225;63005;-59
2023/07/06 01:52:26;;;;;;;0.50;0.50;;;;;;;15.73;54.81;96974.94;29396;227;63009;-60
2023/07/06 01:53:13;;;;;;;0.50;0.50;;;;;;;15.73;55.22;96980.41;29395;225;64009;-61
2023/07/06 01:54:11;;;;;;;0.40;0.40;;;;;;;15.71;54.82;96982.66;29396;299;63009;-59
2023/07/06 01:55:21;;;;;;;0.40;0.40;;;;;;;15.69;54.94;96984.91;29396;262;63004;-59
2023/07/06 01:56:05;;;;;;;0.50;0.50;;;;;;;15.68;55.11;96989.59;29396;227;63009;-59
2023/07/06 01:56:51;;;;;;;0.40;0.40;;;;;;;15.67;55.11;96987.97;29396;218;63004;-60
2023/07/06 01:57:30;;;;;;;0.47;0.47;;;;;;;15.66;55.30;96991.03;29396;226;63015;-60
2023/07/06 01:58:23;;;;;;;0.47;0.47;;;;;;;15.66;55.00;96988.28;29395;197;64009;-60
2023/07/06 01:59:02;;;;;;;0.40;0.40;;;;;;;15.66;55.45;96988.28;29396;209;63009;-59
2023/07/06 01:59:37;;;;;;;0.50;0.50;;;;;;;15.66;55.15;96985.56;29396;215;63005;-60
2023/07/06 02:00:14;;;;;;;0.50;0.50;;;;;;;15.63;55.30;96989.75;29395;222;64013;-58
2023/07/06 02:00:50;;;;;;;0.50;0.50;;;;;;;15.62;55.31;96990.87;29396;241;63004;-59
2023/07/06 02:01:33;;;;;;;0.50;0.50;;;;;;;15.61;55.25;96989.25;29396;230;63009;-50
2023/07/06 02:02:07;;;;;;;0.50;0.50;;;;;;;15.61;55.22;96994.72;29395;251;64004;-61
2023/07/06 02:02:39;;;;;;;0.50;0.50;;;;;;;15.61;55.39;96986.53;29396;257;63009;-51
2023/07/06 02:03:12;;;;;;;0.50;0.50;;;;;;;15.59;55.49;96988.81;29395;251;64004;-60
2023/07/06 02:03:44;;;;;;;0.40;0.40;;;;;;;15.59;55.65;96993.47;29396;207;63008;-59
2023/07/06 02:04:20;;;;;;;0.40;0.40;;;;;;;15.59;55.10;96993.47;29396;208;63004;-59
2023/07/06 02:04:52;;;;;;;0.40;0.40;;;;;;;15.57;55.61;96987.53;29396;338;63009;-59
2023/07/06 02:05:30;;;;;;;0.40;0.40;;;;;;;15.57;55.56;96993.00;29395;222;64009;-50
2023/07/06 02:06:07;;;;;;;0.40;0.40;;;;;;;15.55;55.99;96989.75;29396;216;63009;-59
2023/07/06 02:06:39;;;;;;;0.40;0.40;;;;;;;15.55;55.61;96995.22;29395;204;64009;-61
2023/07/06 02:07:13;;;;;;;0.40;0.40;;;;;;;15.53;56.89;97000.19;29396;228;63009;-59
2023/07/06 02:07:45;;;;;;;0.40;0.40;;;;;;;15.50;56.25;96993.44;29396;268;63005;-60
2023/07/06 02:08:17;;;;;;;0.50;0.50;;;;;;;15.52;55.81;96995.84;29396;253;63027;-60
2023/07/06 02:08:50;;;;;;;0.40;0.40;;;;;;;15.51;55.40;96995.03;29396;205;63004;-58
2023/07/06 02:09:21;;;;;;;0.40;0.40;;;;;;;15.52;55.62;96985.72;29396;334;63009;-50
2023/07/06 02:09:54;;;;;;;0.70;0.70;;;;;;;15.53;55.40;96989.25;29396;196;63017;-51
2023/07/06 02:10:26;;;;;;;0.40;0.40;;;;;;;15.54;55.39;96985.41;29395;218;64013;-59
2023/07/06 02:11:01;;;;;;;0.50;0.50;;;;;;;15.53;55.67;96987.31;29396;208;63004;-60
2023/07/06 02:11:35;;;;;;;0.40;0.40;;;;;;;15.54;55.39;96982.66;29395;198;64014;-60
2023/07/06 02:12:12;;;;;;;0.40;0.40;;;;;;;15.53;55.36;96987.31;29396;232;63005;-51
2023/07/06 02:12:47;;;;;;;0.40;0.40;;;;;;;15.52;55.34;96982.97;29396;216;63009;-60
2023/07/06 02:13:20;;;;;;;0.50;0.50;;;;;;;15.53;55.16;96986.53;29396;202;63005;-50
2023/07/06 02:13:51;;;;;;;0.40;0.40;;;;;;;15.51;55.07;96981.38;29395;216;64013;-61
2023/07/06 02:14:26;;;;;;;0.40;0.40;;;;;;;15.51;55.56;96984.09;29395;209;64009;-59
2023/07/06 02:14:59;;;;;;;0.40;0.40;;;;;;;15.51;55.45;96983.31;29396;202;63009;-60
2023/07/06 02:15:34;;;;;;;0.40;0.40;;;;;;;15.51;55.24;96980.56;29396;254;63004;-50
2023/07/06 02:16:05;;;;;;;0.40;0.40;;;;;;;15.52;55.02;96979.44;29396;324;63009;-60
2023/07/06 02:16:37;;;;;;;0.40;0.40;;;;;;;15.51;55.00;96980.56;29396;196;63004;-60
2023/07/06 02:17:11;;;;;;;0.40;0.40;;;;;;;15.52;54.68;96982.19;29395;359;64013;-59
2023/07/06 02:17:44;;;;;;;0.40;0.40;;;;;;;15.52;54.88;96984.91;29396;221;63004;-60
2023/07/06 02:18:15;;;;;;;0.40;0.40;;;;;;;15.52;55.11;96984.91;29396;244;63008;-60
2023/07/06 02:18:47;;;;;;;0.40;0.40;;;;;;;15.51;54.81;96980.56;29396;199;63004;-59
2023/07/06 02:19:23;;;;;;;0.40;0.40;;;;;;;15.51;55.37;96977.84;29396;217;63009;-50
2023/07/06 02:19:54;;;;;;;0.40;0.40;;;;;;;15.51;55.12;96978.62;29396;216;63005;-59
2023/07/06 02:20:25;;;;;;;0.40;0.40;;;;;;;15.52;55.34;96979.44;29396;266;63017;-59
2023/07/06 02:20:57;;;;;;;0.40;0.40;;;;;;;15.50;55.03;96977.03;29396;196;63005;-60
2023/07/06 02:21:28;;;;;;;0.40;0.40;;;;;;;15.51;54.92;96977.84;29396;218;63009;-51
2023/07/06 02:22:03;;;;;;;0.40;0.40;;;;;;;15.50;55.26;96976.22;29396;212;63005;-58
2023/07/06 02:22:42;;;;;;;0.40;0.40;;;;;;;15.50;55.04;96987.16;29395;214;64013;-59
2023/07/06 02:23:14;;;;;;;0.40;0.40;;;;;;;15.51;55.47;96988.78;29396;304;63004;-60
2023/07/06 02:23:45;;;;;;;0.40;0.40;;;;;;;15.50;55.49;96987.16;29396;268;63009;-60
2023/07/06 02:24:17;;;;;;;0.40;0.40;;;;;;;15.49;55.37;96991.03;29396;343;63004;-59
2023/07/06 02:24:49;;;;;;;0.40;0.40;;;;;;;15.49;55.40;96991.03;29396;205;63009;-60
2023/07/06 02:25:20;;;;;;;0.40;0.40;;;;;;;15.49;55.13;96991.03;29396;336;63004;-50
2023/07/06 02:25:53;;;;;;;0.40;0.40;;;;;;;15.49;55.51;96991.03;29396;241;63008;-59
2023/07/06 02:26:26;;;;;;;0.40;0.40;;;;;;;15.50;55.32;96998.09;29396;200;63005;-59
2023/07/06 02:26:57;;;;;;;0.40;0.40;;;;;;;15.50;55.34;96992.63;29396;250;63009;-60
2023/07/06 02:27:28;;;;;;;0.40;0.40;;;;;;;15.49;55.04;96991.03;29396;225;63005;-59
2023/07/06 02:27:59;;;;;;;0.50;0.50;;;;;;;15.49;55.13;96988.28;29395;297;64014;-60
2023/07/06 02:28:31;;;;;;;0.40;0.40;;;;;;;15.49;55.14;96985.56;29397;337;63005;-50
2023/07/06 02:29:03;;;;;;;0.40;0.40;;;;;;;15.49;55.02;96991.81;29397;203;63021;-58
2023/07/06 02:29:34;;;;;;;0.50;0.50;;;;;;;15.51;54.94;96994.25;29397;217;63005;-51
2023/07/06 02:30:07;;;;;;;0.50;0.50;;;;;;;15.50;55.46;96990.69;29397;204;63009;-60
2023/07/06 02:30:38;;;;;;;0.50;0.50;;;;;;;15.50;55.48;96992.63;29397;259;63004;-60
2023/07/06 02:31:11;;;;;;;0.40;0.40;;;;;;;15.50;55.09;96993.44;29394;244;64013;-61
2023/07/06 02:31:45;;;;;;;0.43;0.43;;;;;;;15.52;55.41;96993.13;29395;202;63004;-50
2023/07/06 02:32:17;;;;;;;0.40;0.40;;;;;;;15.51;55.08;96994.25;29395;257;63009;-59
2023/07/06 02:32:52;;;;;;;0.40;0.40;;;;;;;15.51;55.17;96983.31;29396;327;63004;-60
2023/07/06 02:33:27;;;;;;;0.47;0.47;;;;;;;15.51;55.07;96988.78;29395;266;63008;-59
2023/07/06 02:33:58;;;;;;;0.50;0.50;;;;;;;15.51;55.18;96986.03;29395;205;63005;-59
2023/07/06 02:34:30;;;;;;;0.40;0.40;;;;;;;15.51;54.95;96984.09;29395;271;63005;-60
2023/07/06 02:35:02;;;;;;;0.50;0.50;;;;;;;15.51;54.80;96988.78;29395;247;63001;-60
2023/07/06 02:35:33;;;;;;;0.40;0.40;;;;;;;15.52;55.10;96984.91;29395;242;63027;-59
2023/07/06 02:36:06;;;;;;;0.50;0.50;;;;;;;15.52;55.21;96984.91;29395;202;63005;-59
2023/07/06 02:36:37;;;;;;;0.40;0.40;;;;;;;15.53;54.86;96986.53;29393;372;64013;-61
2023/07/06 02:37:12;;;;;;;0.40;0.40;;;;;;;15.53;54.80;96986.53;29395;220;63005;-60
2023/07/06 02:37:44;;;;;;;0.40;0.40;;;;;;;15.54;55.14;96988.13;29395;277;63009;-61
2023/07/06 02:38:18;;;;;;;0.40;0.40;;;;;;;15.55;54.89;96981.53;29395;203;63007;-60
2023/07/06 02:38:49;;;;;;;0.40;0.40;;;;;;;15.54;55.23;96988.94;29395;199;63009;-59
2023/07/06 02:39:24;;;;;;;0.40;0.40;;;;;;;15.55;55.27;96995.22;29395;221;63004;-50
2023/07/06 02:39:58;;;;;;;0.45;0.45;;;;;;;15.52;55.16;96979.44;29395;257;63009;-59
2023/07/06 02:40:29;;;;;;;0.50;0.50;;;;;;;15.53;55.12;96987.31;29395;210;63004;-59
2023/07/06 02:41:04;;;;;;;0.40;0.40;;;;;;;15.53;55.24;96981.84;29395;211;63008;-50
2023/07/06 02:41:36;;;;;;;0.40;0.40;;;;;;;15.54;55.16;96977.19;29395;196;63005;-60
2023/07/06 02:42:14;;;;;;;0.40;0.40;;;;;;;15.54;54.78;96978.00;29393;236;64014;-60
2023/07/06 02:42:45;;;;;;;0.40;0.40;;;;;;;15.55;54.69;96973.34;29395;199;63005;-60
2023/07/06 02:43:17;;;;;;;0.40;0.40;;;;;;;15.55;55.06;96974.13;29395;210;63009;-58
2023/07/06 02:43:48;;;;;;;0.40;0.40;;;;;;;15.57;55.34;96982.06;29395;214;63005;-59
2023/07/06 02:44:20;;;;;;;0.40;0.40;;;;;;;15.56;55.59;96989.44;29395;219;63009;-59
2023/07/06 02:44:52;;;;;;;0.50;0.50;;;;;;;15.57;55.05;96977.38;29395;364;63005;-60
2023/07/06 02:45:23;;;;;;;0.40;0.40;;;;;;;15.58;55.16;96983.66;29395;203;63009;-50
2023/07/06 02:45:54;;;;;;;0.40;0.40;;;;;;;15.59;54.96;96979.78;29395;248;63004;-60
2023/07/06 02:46:25;;;;;;;0.40;0.40;;;;;;;15.60;55.08;96992.31;29395;375;63004;-60
2023/07/06 02:46:58;;;;;;;0.40;0.40;;;;;;;15.59;55.31;96977.88;29395;203;63004;-50
2023/07/06 02:47:30;;;;;;;0.40;0.40;;;;;;;15.61;55.17;96985.72;29393;198;64013;-60
2023/07/06 02:48:04;;;;;;;0.50;0.50;;;;;;;15.61;55.01;96983.00;29395;236;63004;-59
2023/07/06 02:48:35;;;;;;;0.50;0.50;;;;;;;15.61;55.18;96988.47;29393;231;64013;-59
2023/07/06 02:49:06;;;;;;;0.40;0.40;;;;;;;15.63;55.30;96986.19;29395;212;63005;-59
2023/07/06 02:49:39;;;;;;;0.50;0.50;;;;;;;15.63;55.22;96986.19;29395;235;63009;-51
2023/07/06 02:50:14;;;;;;;0.40;0.40;;;;;;;15.64;55.20;96982.34;29395;366;63005;-50
2023/07/06 02:50:52;;;;;;;0.40;0.40;;;;;;;15.66;54.96;96974.63;29395;266;63018;-59
2023/07/06 02:51:29;;;;;;;0.50;0.50;;;;;;;15.66;55.12;96974.63;29395;202;63005;-50
2023/07/06 02:52:01;;;;;;;0.50;0.50;;;;;;;15.67;54.88;96976.22;29395;210;63009;-59
2023/07/06 02:52:34;;;;;;;0.40;0.40;;;;;;;15.67;54.87;96970.75;29395;249;63005;-59
2023/07/06 02:53:09;;;;;;;0.40;0.40;;;;;;;15.67;54.95;96981.69;29395;251;63009;-58
2023/07/06 02:53:40;;;;;;;0.50;0.50;;;;;;;15.68;54.93;96977.84;29394;210;64009;-48
2023/07/06 02:54:15;;;;;;;0.50;0.50;;;;;;;15.70;54.79;96970.13;29396;216;63009;-60